createdAt,value
2023-04-09T00:00:26.486Z,23.6
2023-04-09T00:01:34.823Z,23.6
2023-04-09T00:02:43.216Z,23.6
2023-04-09T00:03:51.805Z,22.9
2023-04-09T00:05:00.086Z,22.9
2023-04-09T00:06:08.455Z,22.9
2023-04-09T00:07:17.001Z,22.200001
2023-04-09T00:08:25.344Z,22.200001
2023-04-09T00:09:33.685Z,22.200001
2023-04-09T00:10:42.290Z,21.200001
2023-04-09T00:11:50.596Z,21.200001
2023-04-09T00:12:58.950Z,21.200001
2023-04-09T00:14:07.523Z,23.4
2023-04-09T00:15:24.321Z,23.4
2023-04-09T00:16:24.208Z,23.4
2023-04-09T00:17:32.778Z,23.200001
2023-04-09T00:18:41.106Z,23.200001
2023-04-09T00:19:49.444Z,23.200001
2023-04-09T00:20:57.997Z,22.299999
2023-04-09T00:22:06.362Z,22.299999
2023-04-09T00:23:14.723Z,22.299999
2023-04-09T00:24:23.311Z,24.299999
2023-04-09T00:25:31.615Z,24.299999
2023-04-09T00:26:39.980Z,24.299999
2023-04-09T00:27:48.509Z,23
2023-04-09T00:28:56.871Z,23
2023-04-09T00:30:05.234Z,23
2023-04-09T00:31:13.770Z,24.9
2023-04-09T00:32:22.102Z,24.9
2023-04-09T00:33:30.480Z,24.9
2023-04-09T00:34:39.011Z,21.1
2023-04-09T00:35:47.399Z,21.1
2023-04-09T00:36:55.717Z,21.1
2023-04-09T00:38:04.298Z,18.1
2023-04-09T00:39:12.665Z,18.1
2023-04-09T00:40:21.012Z,18.1
2023-04-09T00:41:29.574Z,18
2023-04-09T00:42:37.948Z,18
2023-04-09T00:43:46.289Z,18
2023-04-09T00:44:54.857Z,17.9
2023-04-09T00:46:03.210Z,17.9
2023-04-09T00:47:11.566Z,17.9
2023-04-09T00:48:20.142Z,20.799999
2023-04-09T00:49:28.481Z,20.799999
2023-04-09T00:50:36.828Z,20.799999
2023-04-09T00:51:45.368Z,22.700001
2023-04-09T00:52:53.734Z,22.700001
2023-04-09T00:54:02.093Z,22.700001
2023-04-09T00:55:10.642Z,24.299999
2023-04-09T00:56:18.990Z,24.299999
2023-04-09T00:57:27.352Z,24.299999
2023-04-09T00:58:35.943Z,25.5
2023-04-09T00:59:44.258Z,25.5
2023-04-09T01:00:52.640Z,25.5
2023-04-09T01:02:01.185Z,23.299999
2023-04-09T01:03:09.607Z,23.299999
2023-04-09T01:04:17.878Z,23.299999
2023-04-09T01:05:26.408Z,25.299999
2023-04-09T01:06:34.771Z,25.299999
2023-04-09T01:07:43.106Z,25.299999
2023-04-09T01:08:51.976Z,26.6
2023-04-09T01:10:00.004Z,26.6
2023-04-09T01:11:08.349Z,26.6
2023-04-09T01:12:16.899Z,25.700001
2023-04-09T01:13:25.236Z,25.700001
2023-04-09T01:14:33.606Z,25.700001
2023-04-09T01:15:42.137Z,25
2023-04-09T01:16:50.507Z,25
2023-04-09T01:17:58.854Z,25
2023-04-09T01:19:07.405Z,25.700001
2023-04-09T01:20:15.745Z,25.700001
2023-04-09T01:21:24.122Z,25.700001
2023-04-09T01:22:32.683Z,25.200001
2023-04-09T01:23:41.049Z,25.200001
2023-04-09T01:24:49.374Z,25.200001
2023-04-09T01:25:57.953Z,29.9
2023-04-09T01:27:06.301Z,29.9
2023-04-09T01:28:14.640Z,29.9
2023-04-09T01:29:23.210Z,25.9
2023-04-09T01:30:31.594Z,25.9
2023-04-09T01:31:39.864Z,25.9
2023-04-09T01:32:48.446Z,25.5
2023-04-09T01:33:56.777Z,25.5
2023-04-09T01:35:05.107Z,25.5
2023-04-09T01:36:13.691Z,26.6
2023-04-09T01:37:22.013Z,26.6
2023-04-09T01:38:30.336Z,26.6
2023-04-09T01:39:38.886Z,27.5
2023-04-09T01:40:47.236Z,27.5
2023-04-09T01:41:55.615Z,27.5
2023-04-09T01:43:04.160Z,33.799999
2023-04-09T01:44:12.516Z,33.799999
2023-04-09T01:45:21.480Z,33.799999
2023-04-09T01:46:30.217Z,40.700001
2023-04-09T01:47:38.383Z,40.700001
2023-04-09T01:48:46.710Z,40.700001
2023-04-09T01:49:55.286Z,43.099998
2023-04-09T01:51:03.629Z,43.099998
2023-04-09T01:52:11.971Z,43.099998
2023-04-09T01:53:20.566Z,44.799999
2023-04-09T01:54:28.926Z,44.799999
2023-04-09T01:55:37.244Z,44.799999
2023-04-09T01:56:45.829Z,41.400002
2023-04-09T01:57:54.169Z,41.400002
2023-04-09T01:59:02.496Z,41.400002
2023-04-09T02:00:11.064Z,38.900002
2023-04-09T02:01:19.409Z,38.900002
2023-04-09T02:02:27.889Z,38.900002
2023-04-09T02:03:36.369Z,41.799999
2023-04-09T02:04:44.676Z,41.799999
2023-04-09T02:05:53.027Z,41.799999
2023-04-09T02:07:01.580Z,40
2023-04-09T02:08:09.934Z,40
2023-04-09T02:09:18.274Z,40
2023-04-09T02:10:26.832Z,39.299999
2023-04-09T02:11:35.208Z,39.299999
2023-04-09T02:12:43.536Z,39.299999
2023-04-09T02:13:52.072Z,42.900002
2023-04-09T02:15:00.416Z,42.900002
2023-04-09T02:16:08.785Z,42.900002
2023-04-09T02:17:17.316Z,46
2023-04-09T02:18:25.689Z,46
2023-04-09T02:19:33.986Z,46
2023-04-09T02:20:42.545Z,44.299999
2023-04-09T02:21:50.890Z,44.299999
2023-04-09T02:22:59.228Z,44.299999
2023-04-09T02:24:07.780Z,43.799999
2023-04-09T02:25:16.162Z,43.799999
2023-04-09T02:26:24.503Z,43.799999
2023-04-09T02:27:33.057Z,42.099998
2023-04-09T02:28:41.459Z,42.099998
2023-04-09T02:29:49.751Z,42.099998
2023-04-09T02:30:58.318Z,40.700001
2023-04-09T02:32:06.663Z,40.700001
2023-04-09T02:33:14.996Z,40.700001
2023-04-09T02:34:23.583Z,43.099998
2023-04-09T02:35:31.901Z,43.099998
2023-04-09T02:36:40.246Z,43.099998
2023-04-09T02:37:48.793Z,40.099998
2023-04-09T02:38:57.137Z,40.099998
2023-04-09T02:40:05.502Z,40.099998
2023-04-09T02:41:14.051Z,41
2023-04-09T02:42:22.387Z,41
2023-04-09T02:43:30.764Z,41
2023-04-09T02:44:39.286Z,43.299999
2023-04-09T02:45:47.637Z,43.299999
2023-04-09T02:46:55.988Z,43.299999
2023-04-09T02:48:04.511Z,47.599998
2023-04-09T02:49:12.897Z,47.599998
2023-04-09T02:50:21.299Z,47.599998
2023-04-09T02:51:29.784Z,42.299999
2023-04-09T02:52:38.129Z,42.299999
2023-04-09T02:53:46.482Z,42.299999
2023-04-09T02:54:55.008Z,45.400002
2023-04-09T02:56:03.361Z,45.400002
2023-04-09T02:57:11.715Z,45.400002
2023-04-09T02:58:20.250Z,46.099998
2023-04-09T02:59:28.588Z,46.099998
2023-04-09T03:00:36.958Z,46.099998
2023-04-09T03:01:45.494Z,43.900002
2023-04-09T03:02:53.910Z,43.900002
2023-04-09T03:04:02.240Z,43.900002
2023-04-09T03:05:10.703Z,43.799999
2023-04-09T03:06:19.080Z,43.799999
2023-04-09T03:07:27.424Z,43.799999
2023-04-09T03:08:35.967Z,44.400002
2023-04-09T03:09:44.309Z,44.400002
2023-04-09T03:10:52.678Z,44.400002
2023-04-09T03:12:01.229Z,44.599998
2023-04-09T03:13:09.573Z,44.599998
2023-04-09T03:14:17.921Z,44.599998
2023-04-09T03:15:26.468Z,44
2023-04-09T03:16:34.816Z,44
2023-04-09T03:17:43.200Z,44
2023-04-09T03:18:51.876Z,42.400002
2023-04-09T03:20:00.063Z,42.400002
2023-04-09T03:21:08.419Z,42.400002
2023-04-09T03:22:16.970Z,42.5
2023-04-09T03:23:25.309Z,42.5
2023-04-09T03:24:33.638Z,42.5
2023-04-09T03:25:42.201Z,42.099998
2023-04-09T03:26:50.541Z,42.099998
2023-04-09T03:27:58.879Z,42.099998
2023-04-09T03:29:07.430Z,45
2023-04-09T03:30:15.769Z,45
2023-04-09T03:31:24.176Z,45
2023-04-09T03:32:32.667Z,40.700001
2023-04-09T03:33:41.006Z,40.700001
2023-04-09T03:34:49.342Z,40.700001
2023-04-09T03:35:57.915Z,41.5
2023-04-09T03:37:06.286Z,41.5
2023-04-09T03:38:14.654Z,41.5
2023-04-09T03:39:23.183Z,42.200001
2023-04-09T03:40:31.541Z,42.200001
2023-04-09T03:41:39.867Z,42.200001
2023-04-09T03:42:48.419Z,42.700001
2023-04-09T03:43:56.772Z,42.700001
2023-04-09T03:45:05.120Z,42.700001
2023-04-09T03:46:13.678Z,44
2023-04-09T03:47:22.018Z,44
2023-04-09T03:48:30.346Z,44
2023-04-09T03:49:38.893Z,42.299999
2023-04-09T03:50:47.274Z,42.299999
2023-04-09T03:51:55.582Z,42.299999
2023-04-09T03:53:04.124Z,43.599998
2023-04-09T03:54:12.499Z,43.599998
2023-04-09T03:55:20.823Z,43.599998
2023-04-09T03:56:29.410Z,44.400002
2023-04-09T03:57:37.746Z,44.400002
2023-04-09T03:58:46.066Z,44.400002
2023-04-09T03:59:54.637Z,45
2023-04-09T04:01:02.998Z,45
2023-04-09T04:02:11.375Z,45
2023-04-09T04:03:19.920Z,49.400002
2023-04-09T04:04:28.301Z,49.400002
2023-04-09T04:05:36.571Z,49.400002
2023-04-09T04:06:45.145Z,48.200001
2023-04-09T04:07:53.510Z,48.200001
2023-04-09T04:09:01.840Z,48.200001
2023-04-09T04:10:10.417Z,50.599998
2023-04-09T04:11:18.724Z,50.599998
2023-04-09T04:12:27.045Z,50.599998
2023-04-09T04:13:35.612Z,47.700001
2023-04-09T04:14:43.976Z,47.700001
2023-04-09T04:15:52.309Z,47.700001
2023-04-09T04:17:00.862Z,61.099998
2023-04-09T04:18:09.216Z,61.099998
2023-04-09T04:19:17.535Z,61.099998
2023-04-09T04:20:26.121Z,83
2023-04-09T04:21:34.480Z,83
2023-04-09T04:22:42.809Z,83
2023-04-09T04:23:51.364Z,55.200001
2023-04-09T04:24:59.726Z,55.200001
2023-04-09T04:26:08.083Z,55.200001
2023-04-09T04:27:16.612Z,75.300003
2023-04-09T04:28:24.962Z,75.300003
2023-04-09T04:29:33.267Z,75.300003
2023-04-09T04:30:41.830Z,55.5
2023-04-09T04:31:50.227Z,55.5
2023-04-09T04:32:58.570Z,55.5
2023-04-09T04:34:07.126Z,54.599998
2023-04-09T04:35:15.490Z,54.599998
2023-04-09T04:36:23.815Z,54.599998
2023-04-09T04:37:32.383Z,59.5
2023-04-09T04:38:40.734Z,59.5
2023-04-09T04:39:49.080Z,59.5
2023-04-09T04:40:57.632Z,52.700001
2023-04-09T04:42:06.094Z,52.700001
2023-04-09T04:43:14.319Z,52.700001
2023-04-09T04:44:22.906Z,51.5
2023-04-09T04:45:31.240Z,51.5
2023-04-09T04:46:39.606Z,51.5
2023-04-09T04:47:48.211Z,52.200001
2023-04-09T04:48:56.515Z,52.200001
2023-04-09T04:50:04.876Z,52.200001
2023-04-09T04:51:13.438Z,49.200001
2023-04-09T04:52:21.775Z,49.200001
2023-04-09T04:53:30.117Z,49.200001
2023-04-09T04:54:38.682Z,56.200001
2023-04-09T04:55:47.009Z,56.200001
2023-04-09T04:56:55.349Z,56.200001
2023-04-09T04:58:03.971Z,52.599998
2023-04-09T04:59:12.264Z,52.599998
2023-04-09T05:00:20.625Z,52.599998
2023-04-09T05:01:29.191Z,56.5
2023-04-09T05:02:37.580Z,56.5
2023-04-09T05:03:45.918Z,56.5
2023-04-09T05:04:54.414Z,49.400002
2023-04-09T05:06:02.781Z,49.400002
2023-04-09T05:07:11.103Z,49.400002
2023-04-09T05:08:19.650Z,58.099998
2023-04-09T05:09:27.979Z,58.099998
2023-04-09T05:10:36.320Z,58.099998
2023-04-09T05:11:44.862Z,59.099998
2023-04-09T05:12:53.206Z,59.099998
2023-04-09T05:14:01.596Z,59.099998
2023-04-09T05:15:10.117Z,50.799999
2023-04-09T05:16:18.466Z,50.799999
2023-04-09T05:17:26.799Z,50.799999
2023-04-09T05:18:35.310Z,53.5
2023-04-09T05:19:43.666Z,53.5
2023-04-09T05:20:52.027Z,53.5
2023-04-09T05:22:00.543Z,61.5
2023-04-09T05:23:08.874Z,61.5
2023-04-09T05:24:17.267Z,61.5
2023-04-09T05:25:25.810Z,56.200001
2023-04-09T05:26:34.144Z,56.200001
2023-04-09T05:27:42.488Z,56.200001
2023-04-09T05:28:51.161Z,59.599998
2023-04-09T05:30:00.861Z,59.599998
2023-04-09T05:31:07.759Z,59.599998
2023-04-09T05:32:16.214Z,64.199997
2023-04-09T05:33:24.529Z,64.199997
2023-04-09T05:34:32.848Z,64.199997
2023-04-09T05:35:41.417Z,60.799999
2023-04-09T05:36:49.707Z,60.799999
2023-04-09T05:37:58.028Z,60.799999
2023-04-09T05:39:06.558Z,68.099998
2023-04-09T05:40:14.899Z,68.099998
2023-04-09T05:41:23.219Z,68.099998
2023-04-09T05:42:31.750Z,56.400002
2023-04-09T05:43:40.070Z,56.400002
2023-04-09T05:44:48.398Z,56.400002
2023-04-09T05:45:56.985Z,69.199997
2023-04-09T05:47:05.244Z,69.199997
2023-04-09T05:48:13.587Z,69.199997
2023-04-09T05:49:22.136Z,67
2023-04-09T05:50:31.027Z,67
2023-04-09T05:51:38.783Z,67
2023-04-09T05:52:47.315Z,69.199997
2023-04-09T05:53:55.630Z,69.199997
2023-04-09T05:55:03.957Z,69.199997
2023-04-09T05:56:12.488Z,61.400002
2023-04-09T05:57:21.012Z,61.400002
2023-04-09T05:58:29.552Z,61.400002
2023-04-09T05:59:38.128Z,64.099998
2023-04-09T06:00:46.707Z,64.099998
2023-04-09T06:01:55.759Z,64.099998
2023-04-09T06:03:05.033Z,61.900002
2023-04-09T06:04:15.801Z,61.900002
2023-04-09T06:05:25.395Z,61.900002
2023-04-09T06:06:35.078Z,49
2023-04-09T06:07:43.517Z,49
2023-04-09T06:08:51.894Z,49
2023-04-09T06:10:00.464Z,41.200001
2023-04-09T06:11:08.789Z,41.200001
2023-04-09T06:12:17.128Z,41.200001
2023-04-09T06:13:25.665Z,37.099998
2023-04-09T06:14:34.161Z,37.099998
2023-04-09T06:15:42.537Z,37.099998
2023-04-09T06:16:51.129Z,32.299999
2023-04-09T06:17:59.580Z,32.299999
2023-04-09T06:19:07.818Z,32.299999
2023-04-09T06:20:16.420Z,30.700001
2023-04-09T06:21:24.775Z,30.700001
2023-04-09T06:22:33.151Z,30.700001
2023-04-09T06:23:41.760Z,30
2023-04-09T06:24:50.150Z,30
2023-04-09T06:25:58.527Z,30
2023-04-09T06:27:07.158Z,29.4
2023-04-09T06:28:15.575Z,29.4
2023-04-09T06:29:24.396Z,29.4
2023-04-09T06:30:32.537Z,31.200001
2023-04-09T06:31:40.973Z,31.200001
2023-04-09T06:32:54.187Z,31.200001
2023-04-09T06:33:57.864Z,29.1
2023-04-09T06:35:06.446Z,29.1
2023-04-09T06:36:14.757Z,29.1
2023-04-09T06:37:23.367Z,29.299999
2023-04-09T06:38:31.790Z,29.299999
2023-04-09T06:39:42.522Z,29.299999
2023-04-09T06:40:48.668Z,32.299999
2023-04-09T06:41:56.979Z,32.299999
2023-04-09T06:43:05.302Z,32.299999
2023-04-09T06:44:13.838Z,31
2023-04-09T06:45:22.184Z,31
2023-04-09T06:46:30.527Z,31
2023-04-09T06:47:39.028Z,30.4
2023-04-09T06:48:47.347Z,30.4
2023-04-09T06:49:55.697Z,30.4
2023-04-09T06:51:04.217Z,32.099998
2023-04-09T06:52:12.540Z,32.099998
2023-04-09T06:53:20.907Z,32.099998
2023-04-09T06:54:29.614Z,25.299999
2023-04-09T06:55:37.940Z,25.299999
2023-04-09T06:56:46.278Z,25.299999
2023-04-09T06:57:54.846Z,26.1
2023-04-09T06:59:03.185Z,26.1
2023-04-09T07:00:11.559Z,26.1
2023-04-09T07:01:20.077Z,24.799999
2023-04-09T07:02:28.567Z,24.799999
2023-04-09T07:03:36.941Z,24.799999
2023-04-09T07:04:45.358Z,30.1
2023-04-09T07:05:53.872Z,30.1
2023-04-09T07:07:01.970Z,30.1
2023-04-09T07:08:10.507Z,33.799999
2023-04-09T07:09:18.890Z,33.799999
2023-04-09T07:10:27.251Z,33.799999
2023-04-09T07:11:35.742Z,33.900002
2023-04-09T07:12:44.129Z,33.900002
2023-04-09T07:13:52.619Z,33.900002
2023-04-09T07:15:01.068Z,37.5
2023-04-09T07:16:09.477Z,37.5
2023-04-09T07:17:17.797Z,37.5
2023-04-09T07:18:26.357Z,38.700001
2023-04-09T07:19:34.744Z,38.700001
2023-04-09T07:20:43.094Z,38.700001
2023-04-09T07:21:51.709Z,39.599998
2023-04-09T07:23:00.023Z,39.599998
2023-04-09T07:24:08.388Z,39.599998
2023-04-09T07:25:17.000Z,40.200001
2023-04-09T07:26:25.407Z,40.200001
2023-04-09T07:27:33.797Z,40.200001
2023-04-09T07:28:42.342Z,43.900002
2023-04-09T07:29:50.719Z,43.900002
2023-04-09T07:30:59.100Z,43.900002
2023-04-09T07:32:07.634Z,43.200001
2023-04-09T07:33:16.013Z,43.200001
2023-04-09T07:34:24.441Z,43.200001
2023-04-09T07:35:33.050Z,44.099998
2023-04-09T07:36:41.400Z,44.099998
2023-04-09T07:37:49.770Z,44.099998
2023-04-09T07:38:58.370Z,41.700001
2023-04-09T07:40:06.717Z,41.700001
2023-04-09T07:41:15.056Z,41.700001
2023-04-09T07:42:23.642Z,38.5
2023-04-09T07:43:32.039Z,38.5
2023-04-09T07:44:40.379Z,38.5
2023-04-09T07:45:48.909Z,39.900002
2023-04-09T07:46:57.250Z,39.900002
2023-04-09T07:48:05.600Z,39.900002
2023-04-09T07:49:14.084Z,37.599998
2023-04-09T07:50:22.600Z,37.599998
2023-04-09T07:51:30.716Z,37.599998
2023-04-09T07:52:39.264Z,36
2023-04-09T07:53:47.645Z,36
2023-04-09T07:54:55.940Z,36
2023-04-09T07:56:04.500Z,35.099998
2023-04-09T07:57:12.810Z,35.099998
2023-04-09T07:58:21.141Z,35.099998
2023-04-09T07:59:29.733Z,31.200001
2023-04-09T08:00:38.139Z,31.200001
2023-04-09T08:01:46.574Z,31.200001
2023-04-09T08:02:55.316Z,32.700001
2023-04-09T08:04:03.499Z,32.700001
2023-04-09T08:05:11.713Z,32.700001
2023-04-09T08:06:20.203Z,31.200001
2023-04-09T08:07:28.580Z,31.200001
2023-04-09T08:08:36.920Z,31.200001
2023-04-09T08:09:45.514Z,31.1
2023-04-09T08:10:53.815Z,31.1
2023-04-09T08:12:02.191Z,31.1
2023-04-09T08:13:12.026Z,34.299999
2023-04-09T08:14:19.082Z,34.299999
2023-04-09T08:15:27.423Z,34.299999
2023-04-09T08:16:36.011Z,30.200001
2023-04-09T08:17:45.050Z,30.200001
2023-04-09T08:18:53.693Z,30.200001
2023-04-09T08:20:02.490Z,33.299999
2023-04-09T08:21:10.830Z,33.299999
2023-04-09T08:22:19.169Z,33.299999
2023-04-09T08:23:27.699Z,29
2023-04-09T08:24:36.068Z,29
2023-04-09T08:25:45.157Z,29
2023-04-09T08:26:53.729Z,27.700001
2023-04-09T08:28:02.076Z,27.700001
2023-04-09T08:29:10.434Z,27.700001
2023-04-09T08:30:19.096Z,24.5
2023-04-09T08:31:27.355Z,24.5
2023-04-09T08:32:35.725Z,24.5
2023-04-09T08:33:44.211Z,26.799999
2023-04-09T08:34:52.529Z,26.799999
2023-04-09T08:36:02.032Z,26.799999
2023-04-09T08:37:09.352Z,26.799999
2023-04-09T08:38:17.662Z,26.799999
2023-04-09T08:39:25.999Z,26.799999
2023-04-09T08:40:34.527Z,26.299999
2023-04-09T08:41:42.868Z,26.299999
2023-04-09T08:42:51.174Z,26.299999
2023-04-09T08:44:00.145Z,26.1
2023-04-09T08:45:08.140Z,26.1
2023-04-09T08:46:16.531Z,26.1
2023-04-09T08:47:25.088Z,25.6
2023-04-09T08:48:33.486Z,25.6
2023-04-09T08:49:41.861Z,25.6
2023-04-09T08:50:50.365Z,29.6
2023-04-09T08:51:58.743Z,29.6
2023-04-09T08:53:07.087Z,29.6
2023-04-09T08:54:15.638Z,24.9
2023-04-09T08:55:24.027Z,24.9
2023-04-09T08:56:32.460Z,24.9
2023-04-09T08:57:41.025Z,24.799999
2023-04-09T08:58:49.383Z,24.799999
2023-04-09T08:59:57.798Z,24.799999
2023-04-09T09:01:06.352Z,25.4
2023-04-09T09:02:14.706Z,25.4
2023-04-09T09:03:23.173Z,25.4
2023-04-09T09:04:31.759Z,25.799999
2023-04-09T09:05:40.093Z,25.799999
2023-04-09T09:06:48.429Z,25.799999
2023-04-09T09:07:57.043Z,26.200001
2023-04-09T09:09:05.407Z,26.200001
2023-04-09T09:10:13.807Z,26.200001
2023-04-09T09:11:22.354Z,26.1
2023-04-09T09:12:30.730Z,26.1
2023-04-09T09:13:39.089Z,26.1
2023-04-09T09:14:47.672Z,25.4
2023-04-09T09:15:56.074Z,25.4
2023-04-09T09:17:04.478Z,25.4
2023-04-09T09:18:13.006Z,25.9
2023-04-09T09:19:21.384Z,25.9
2023-04-09T09:20:29.764Z,25.9
2023-04-09T09:21:38.361Z,23.299999
2023-04-09T09:22:46.730Z,23.299999
2023-04-09T09:23:55.113Z,23.299999
2023-04-09T09:25:03.689Z,24.9
2023-04-09T09:26:12.054Z,24.9
2023-04-09T09:27:20.410Z,24.9
2023-04-09T09:28:29.001Z,24.9
2023-04-09T09:29:37.401Z,24.9
2023-04-09T09:30:47.245Z,24.9
2023-04-09T09:31:54.313Z,24.799999
2023-04-09T09:33:02.679Z,24.799999
2023-04-09T09:34:11.054Z,24.799999
2023-04-09T09:35:19.636Z,21.799999
2023-04-09T09:36:28.121Z,21.799999
2023-04-09T09:37:36.507Z,21.799999
2023-04-09T09:38:45.056Z,23.5
2023-04-09T09:39:54.095Z,23.5
2023-04-09T09:41:02.697Z,23.5
2023-04-09T09:42:12.908Z,19.6
2023-04-09T09:43:34.316Z,19.6
2023-04-09T09:44:45.459Z,19.6
2023-04-09T09:45:56.449Z,20.5
2023-04-09T09:47:08.228Z,20.5
2023-04-09T09:48:27.125Z,20.5
2023-04-09T09:49:38.222Z,20.1
2023-04-09T09:50:53.020Z,20.1
2023-04-09T09:52:02.274Z,20.1
2023-04-09T09:53:12.933Z,19.200001
2023-04-09T09:54:24.930Z,19.200001
2023-04-09T09:55:42.301Z,19.200001
2023-04-09T09:56:53.789Z,20.799999
2023-04-09T09:58:04.491Z,20.799999
2023-04-09T09:59:15.739Z,20.799999
2023-04-09T10:00:27.042Z,19.5
2023-04-09T10:01:38.929Z,19.5
2023-04-09T10:02:50.929Z,19.5
2023-04-09T10:04:14.849Z,21.700001
2023-04-09T10:05:39.912Z,21.700001
2023-04-09T10:06:53.297Z,21.700001
2023-04-09T10:08:01.406Z,20.6
2023-04-09T10:09:14.478Z,20.6
2023-04-09T10:10:52.394Z,20.6
2023-04-09T10:12:28.182Z,22.200001
2023-04-09T10:15:02.139Z,22.200001
2023-04-09T10:16:10.714Z,22.200001
2023-04-09T10:17:19.199Z,23.5
2023-04-09T10:18:27.595Z,23.5
2023-04-09T10:19:36.023Z,23.5
2023-04-09T10:20:44.937Z,21.6
2023-04-09T10:21:55.950Z,21.6
2023-04-09T10:23:04.294Z,21.6
2023-04-09T10:24:12.859Z,22.799999
2023-04-09T10:25:21.207Z,22.799999
2023-04-09T10:26:29.551Z,22.799999
2023-04-09T10:27:38.133Z,20.1
2023-04-09T10:28:46.495Z,20.1
2023-04-09T10:29:54.858Z,20.1
2023-04-09T10:31:03.472Z,17.799999
2023-04-09T10:32:11.789Z,17.799999
2023-04-09T10:33:20.122Z,17.799999
2023-04-09T10:34:28.692Z,20.9
2023-04-09T10:35:37.048Z,20.9
2023-04-09T10:36:45.402Z,20.9
2023-04-09T10:37:53.965Z,17.700001
2023-04-09T10:39:02.324Z,17.700001
2023-04-09T10:40:10.799Z,17.700001
2023-04-09T10:41:19.236Z,15.4
2023-04-09T10:42:27.602Z,15.4
2023-04-09T10:43:35.964Z,15.4
2023-04-09T10:44:44.538Z,15
2023-04-09T10:45:52.913Z,15
2023-04-09T10:47:01.282Z,15
2023-04-09T10:48:09.870Z,16.6
2023-04-09T10:49:18.192Z,16.6
2023-04-09T10:50:26.616Z,16.6
2023-04-09T10:51:35.505Z,17.1
2023-04-09T10:52:44.287Z,17.1
2023-04-09T10:53:53.107Z,17.1
2023-04-09T10:55:02.218Z,16.799999
2023-04-09T10:56:10.725Z,16.799999
2023-04-09T10:57:19.281Z,16.799999
2023-04-09T10:58:28.331Z,17.4
2023-04-09T10:59:37.486Z,17.4
2023-04-09T11:00:45.911Z,17.4
2023-04-09T11:01:54.785Z,22.6
2023-04-09T11:03:03.278Z,22.6
2023-04-09T11:04:11.795Z,22.6
2023-04-09T11:05:20.477Z,18.700001
2023-04-09T11:06:29.019Z,18.700001
2023-04-09T11:07:37.662Z,18.700001
2023-04-09T11:08:46.486Z,17.6
2023-04-09T11:09:55.089Z,17.6
2023-04-09T11:11:03.715Z,17.6
2023-04-09T11:12:12.537Z,17.6
2023-04-09T11:13:21.138Z,17.6
2023-04-09T11:14:29.830Z,17.6
2023-04-09T11:15:38.641Z,17.1
2023-04-09T11:16:47.313Z,17.1
2023-04-09T11:17:56.009Z,17.1
2023-04-09T11:19:04.768Z,17.4
2023-04-09T11:20:13.434Z,17.4
2023-04-09T11:21:22.104Z,17.4
2023-04-09T11:22:30.981Z,18.799999
2023-04-09T11:23:39.648Z,18.799999
2023-04-09T11:24:48.330Z,18.799999
2023-04-09T11:25:57.246Z,16.9
2023-04-09T11:27:05.928Z,16.9
2023-04-09T11:28:14.677Z,16.9
2023-04-09T11:29:23.629Z,16.6
2023-04-09T11:30:32.337Z,16.6
2023-04-09T11:31:41.149Z,16.6
2023-04-09T11:32:50.127Z,16.6
2023-04-09T11:33:58.813Z,16.6
2023-04-09T11:35:07.562Z,16.6
2023-04-09T11:36:16.648Z,16.6
2023-04-09T11:37:25.433Z,16.6
2023-04-09T11:38:34.215Z,16.6
2023-04-09T11:39:43.292Z,15.3
2023-04-09T11:40:52.132Z,15.3
2023-04-09T11:42:00.918Z,15.3
2023-04-09T11:43:10.053Z,14.6
2023-04-09T11:44:18.842Z,14.6
2023-04-09T11:45:27.677Z,14.6
2023-04-09T11:46:36.776Z,14.7
2023-04-09T11:47:45.694Z,14.7
2023-04-09T11:48:54.521Z,14.7
2023-04-09T11:50:03.570Z,15.4
2023-04-09T11:51:12.525Z,15.4
2023-04-09T11:52:21.453Z,15.4
2023-04-09T11:53:30.687Z,15.3
2023-04-09T11:54:39.587Z,15.3
2023-04-09T11:55:48.511Z,15.3
2023-04-09T11:56:57.755Z,14.1
2023-04-09T11:58:06.605Z,14.1
2023-04-09T11:59:15.624Z,14.1
2023-04-09T12:00:24.801Z,15.4
2023-04-09T12:01:33.683Z,15.4
2023-04-09T12:02:42.672Z,15.4
2023-04-09T12:03:51.907Z,14.3
2023-04-09T12:05:00.694Z,14.3
2023-04-09T12:06:09.611Z,14.3
2023-04-09T12:07:18.816Z,14.9
2023-04-09T12:08:27.666Z,14.9
2023-04-09T12:09:36.460Z,14.9
2023-04-09T12:10:45.746Z,13.6
2023-04-09T12:11:54.836Z,13.6
2023-04-09T12:13:04.128Z,13.6
2023-04-09T12:14:13.392Z,14.1
2023-04-09T12:15:22.490Z,14.1
2023-04-09T12:16:31.188Z,14.1
2023-04-09T12:17:40.096Z,13.2
2023-04-09T12:18:48.638Z,13.2
2023-04-09T12:19:57.204Z,13.2
2023-04-09T12:21:06.001Z,10.8
2023-04-09T12:22:14.517Z,10.8
2023-04-09T12:23:23.130Z,10.8
2023-04-09T12:24:32.103Z,12.2
2023-04-09T12:25:41.045Z,12.2
2023-04-09T12:26:49.619Z,12.2
2023-04-09T12:27:58.460Z,12.6
2023-04-09T12:29:07.157Z,12.6
2023-04-09T12:30:15.827Z,12.6
2023-04-09T12:31:24.512Z,12.1
2023-04-09T12:32:33.085Z,12.1
2023-04-09T12:33:41.635Z,12.1
2023-04-09T12:34:50.378Z,12.2
2023-04-09T12:35:58.946Z,12.2
2023-04-09T12:37:07.369Z,12.2
2023-04-09T12:38:16.033Z,12.6
2023-04-09T12:39:24.494Z,12.6
2023-04-09T12:40:32.987Z,12.6
2023-04-09T12:41:41.632Z,11.6
2023-04-09T12:42:50.118Z,11.6
2023-04-09T12:43:58.602Z,11.6
2023-04-09T12:45:07.280Z,12.6
2023-04-09T12:46:15.766Z,12.6
2023-04-09T12:47:24.157Z,12.6
2023-04-09T12:48:32.838Z,11.2
2023-04-09T12:49:42.339Z,11.2
2023-04-09T12:50:49.773Z,11.2
2023-04-09T12:51:58.450Z,11.9
2023-04-09T12:53:06.934Z,11.9
2023-04-09T12:54:15.433Z,11.9
2023-04-09T12:55:24.080Z,11.7
2023-04-09T12:56:32.588Z,11.7
2023-04-09T12:57:41.091Z,11.7
2023-04-09T12:58:49.795Z,11.6
2023-04-09T12:59:58.454Z,11.6
2023-04-09T13:01:07.301Z,11.6
2023-04-09T13:02:16.312Z,11.7
2023-04-09T13:03:28.923Z,11.7
2023-04-09T13:04:54.465Z,11.7
2023-04-09T13:06:27.856Z,10.9
2023-04-09T13:07:38.794Z,10.9
2023-04-09T13:08:51.244Z,10.9
2023-04-09T13:10:02.930Z,10.7
2023-04-09T13:11:20.005Z,10.7
2023-04-09T13:12:37.968Z,10.7
2023-04-09T13:13:52.251Z,10.7
2023-04-09T13:15:09.142Z,10.7
2023-04-09T13:16:18.281Z,10.7
2023-04-09T13:17:28.035Z,12.2
2023-04-09T13:20:57.352Z,12.2
2023-04-09T13:22:06.333Z,11.9
2023-04-09T13:23:15.060Z,11.9
2023-04-09T13:24:23.848Z,11.9
2023-04-09T13:25:32.807Z,11.6
2023-04-09T13:26:41.694Z,11.6
2023-04-09T13:27:50.361Z,11.6
2023-04-09T13:28:59.367Z,11.1
2023-04-09T13:30:08.350Z,11.1
2023-04-09T13:31:17.661Z,11.1
2023-04-09T13:32:27.603Z,11.7
2023-04-09T13:33:36.958Z,11.7
2023-04-09T13:34:46.998Z,11.7
2023-04-09T13:35:57.208Z,11.6
2023-04-09T13:37:06.820Z,11.6
2023-04-09T13:38:16.433Z,11.6
2023-04-09T13:39:26.602Z,9.8
2023-04-09T13:40:36.522Z,9.8
2023-04-09T13:41:46.763Z,9.8
2023-04-09T13:42:57.013Z,10.1
2023-04-09T13:44:06.995Z,10.1
2023-04-09T13:45:17.115Z,10.1
2023-04-09T13:46:27.163Z,10.4
2023-04-09T13:47:37.063Z,10.4
2023-04-09T13:48:47.089Z,10.4
2023-04-09T13:49:57.100Z,8.9
2023-04-09T13:51:06.808Z,8.9
2023-04-09T13:52:16.522Z,8.9
2023-04-09T13:53:26.479Z,10.6
2023-04-09T13:54:36.037Z,10.6
2023-04-09T13:55:45.685Z,10.6
2023-04-09T13:56:55.428Z,11.2
2023-04-09T13:58:05.147Z,11.2
2023-04-09T13:59:14.169Z,11.2
2023-04-09T14:00:22.938Z,10.6
2023-04-09T14:01:31.459Z,10.6
2023-04-09T14:02:40.070Z,10.6
2023-04-09T14:03:48.666Z,10.4
2023-04-09T14:04:57.074Z,10.4
2023-04-09T14:06:05.594Z,10.4
2023-04-09T14:07:14.312Z,10.4
2023-04-09T14:08:22.834Z,10.4
2023-04-09T14:09:32.343Z,10.4
2023-04-09T14:10:41.957Z,10.6
2023-04-09T14:11:50.453Z,10.6
2023-04-09T14:12:58.976Z,10.6
2023-04-09T14:14:07.695Z,10.7
2023-04-09T14:15:16.155Z,10.7